This is the latest recevied weather packets stored in our database for station/object N3FAA. If no packets are shown the sender has not sent any weather packets the latest 10 day(s).
| Time | Temp. | Humidity | Pressure | Rain* | Wind** | Luminosity | Snow |
|---|---|---|---|---|---|---|---|
| 1777540856 | 14.44° C | 57% | 1011.1 hPa | 0 mm | - | 0 W/m² | - |
| 1777540554 | 14.44° C | 57% | 1011 hPa | 0 mm | - | 0 W/m² | - |
| 1777540249 | 14.44° C | 56% | 1011.3 hPa | 0 mm | - | 0 W/m² | - |
| 1777539945 | 14.44° C | 56% | 1011.3 hPa | 0 mm | - | 0 W/m² | - |
| 1777539642 | 13.89° C | 57% | 1011.4 hPa | 0 mm | - | 0 W/m² | - |
| 1777539338 | 14.44° C | 58% | 1011.3 hPa | 0 mm | - | 0 W/m² | - |
| 1777539035 | 14.44° C | 58% | 1011.5 hPa | 0 mm | - | 0 W/m² | - |
| 1777538731 | 14.44° C | 58% | 1011.4 hPa | 0 mm | - | 0 W/m² | - |
| 1777538426 | 13.89° C | 58% | 1011.5 hPa | 0 mm | - | 0 W/m² | - |
| 1777538122 | 13.33° C | 60% | 1011.7 hPa | 0 mm | - | 0 W/m² | - |
| 1777537817 | 12.22° C | 64% | 1011.7 hPa | 0 mm | - | 0 W/m² | - |
| 1777537514 | 12.22° C | 65% | 1011.8 hPa | 0 mm | - | 0 W/m² | - |
| 1777537210 | 11.67° C | 66% | 1011.6 hPa | 0 mm | - | 0 W/m² | - |
| 1777536906 | 11.11° C | 68% | 1011.9 hPa | 0 mm | - | 0 W/m² | - |
| 1777536604 | 11.11° C | 67% | 1011.8 hPa | 0 mm | - | 0 W/m² | - |
| 1777536300 | 11.67° C | 66% | 1011.8 hPa | 0 mm | - | 0 W/m² | - |
| 1777535996 | 12.22° C | 64% | 1011.9 hPa | 0 mm | - | 0 W/m² | - |
| 1777535692 | 12.78° C | 63% | 1011.8 hPa | 0 mm | - | 0 W/m² | - |
| 1777535389 | 12.78° C | 63% | 1011.9 hPa | 0 mm | - | 0 W/m² | - |
| 1777535087 | 12.78° C | 64% | 1012.1 hPa | 0 mm | - | 0 W/m² | - |
| 1777534783 | 12.22° C | 65% | 1011.9 hPa | 0 mm | - | 0 W/m² | - |
| 1777534480 | 12.22° C | 64% | 1012 hPa | 0 mm | - | 0 W/m² | - |
| 1777534178 | 12.22° C | 65% | 1012 hPa | 0 mm | - | 0 W/m² | - |
| 1777533875 | 12.22° C | 65% | 1012 hPa | 0 mm | - | 0 W/m² | - |
| 1777533572 | 12.22° C | 65% | 1012.1 hPa | 0 mm | - | 0 W/m² | - |
* Rain latest hour (hover to see other rain measurements)
** Current wind speed in m/s (hover to see current wind gust speed)